createdAt,value
2017-10-02T00:02:21.888Z,101192.05
2017-10-02T00:04:50.932Z,101185.33
2017-10-02T00:07:19.251Z,101196.62
2017-10-02T00:09:48.330Z,101194.67
2017-10-02T00:12:17.524Z,101193.55
2017-10-02T00:14:46.034Z,101178.78
2017-10-02T00:17:15.088Z,101188.02
2017-10-02T00:19:43.398Z,101176.80
2017-10-02T00:22:11.712Z,101181.80
2017-10-02T00:24:40.038Z,101189.39
2017-10-02T00:27:08.356Z,101194.59
2017-10-02T00:29:37.425Z,101189.31
2017-10-02T00:32:06.524Z,101192.42
2017-10-02T00:34:34.939Z,101172.23
2017-10-02T00:37:03.998Z,101158.55
2017-10-02T00:39:32.316Z,101146.02
2017-10-02T00:42:01.378Z,101145.50
2017-10-02T00:44:29.696Z,101133.38
2017-10-02T00:46:58.762Z,101139.06
2017-10-02T00:49:27.066Z,101127.36
2017-10-02T00:51:56.140Z,101127.66
2017-10-02T00:54:24.481Z,101106.83
2017-10-02T00:56:52.780Z,101110.34
2017-10-02T00:59:21.082Z,101116.33
2017-10-02T01:01:49.374Z,101127.92
2017-10-02T01:04:17.678Z,101144.23
2017-10-02T01:06:46.749Z,101137.11
2017-10-02T01:09:15.072Z,101122.16
2017-10-02T01:11:43.407Z,101128.26
2017-10-02T01:14:11.710Z,101117.48
2017-10-02T01:16:40.805Z,101135.81
2017-10-02T01:19:09.142Z,101120.77
2017-10-02T01:21:37.551Z,101121.48
2017-10-02T01:24:05.935Z,101131.09
2017-10-02T01:26:34.256Z,101142.69
2017-10-02T01:29:02.596Z,101133.97
2017-10-02T01:31:30.899Z,101145.67
2017-10-02T01:33:59.250Z,101138.76
2017-10-02T01:36:27.578Z,101133.08
2017-10-02T01:38:55.901Z,101120.96
2017-10-02T01:41:24.216Z,101134.65
2017-10-02T01:43:52.569Z,101125.23
2017-10-02T01:46:20.898Z,101119.95
2017-10-02T01:48:50.006Z,101124.11
2017-10-02T01:51:18.322Z,101116.44
2017-10-02T01:53:46.724Z,101106.60
2017-10-02T01:56:15.023Z,101098.94
2017-10-02T01:58:43.320Z,101097.17
2017-10-02T02:01:12.448Z,101095.72
2017-10-02T02:03:40.748Z,101082.55
2017-10-02T02:06:09.066Z,101085.13
2017-10-02T02:08:38.169Z,101080.75
2017-10-02T02:11:06.544Z,101083.97
2017-10-02T02:13:34.878Z,101089.66
2017-10-02T02:16:03.182Z,101083.22
2017-10-02T02:18:31.479Z,101087.85
2017-10-02T02:20:59.877Z,101080.89
2017-10-02T02:23:28.244Z,101105.72
2017-10-02T02:25:56.616Z,101106.25
2017-10-02T02:28:24.942Z,101101.16
2017-10-02T02:30:54.068Z,101097.13
2017-10-02T02:33:22.386Z,101089.45
2017-10-02T02:35:50.715Z,101091.20
2017-10-02T02:38:19.018Z,101080.20
2017-10-02T02:40:47.336Z,101076.58
2017-10-02T02:43:17.173Z,101075.00
2017-10-02T02:45:46.274Z,101063.48
2017-10-02T02:48:15.534Z,101071.45
2017-10-02T02:50:43.862Z,101082.11
2017-10-02T02:53:12.949Z,101077.02
2017-10-02T02:55:42.024Z,101068.70
2017-10-02T02:58:10.324Z,101056.32
2017-10-02T03:00:39.418Z,101053.92
2017-10-02T03:03:07.735Z,101064.88
2017-10-02T03:05:36.073Z,101066.00
2017-10-02T03:08:04.428Z,101069.81
2017-10-02T03:10:32.720Z,101063.26
2017-10-02T03:13:01.035Z,101069.77
2017-10-02T03:15:30.140Z,101061.56
2017-10-02T03:17:59.290Z,101080.61
2017-10-02T03:20:27.667Z,101079.30
2017-10-02T03:22:56.014Z,101073.03
2017-10-02T03:25:25.078Z,101067.53
2017-10-02T03:27:53.385Z,101056.81
2017-10-02T03:30:22.477Z,101052.42
2017-10-02T03:32:51.577Z,101054.78
2017-10-02T03:35:20.629Z,101046.31
2017-10-02T03:37:49.022Z,101043.05
2017-10-02T03:40:17.341Z,101037.30
2017-10-02T03:42:46.512Z,101047.92
2017-10-02T03:45:14.808Z,101044.31
2017-10-02T03:47:43.131Z,101052.98
2017-10-02T03:50:11.430Z,101044.44
2017-10-02T03:52:39.749Z,101036.53
2017-10-02T03:55:08.120Z,101040.45
2017-10-02T03:57:36.428Z,101035.95
2017-10-02T04:00:05.541Z,101042.95
2017-10-02T04:02:33.850Z,101030.35
2017-10-02T04:05:02.142Z,101027.95
2017-10-02T04:07:30.576Z,101036.98
2017-10-02T04:09:59.695Z,101048.34
2017-10-02T04:12:28.014Z,101043.25
2017-10-02T04:14:56.395Z,101031.82
2017-10-02T04:17:24.751Z,101031.70
2017-10-02T04:19:53.095Z,101027.84
2017-10-02T04:22:22.312Z,101023.27
2017-10-02T04:24:51.393Z,101028.66
2017-10-02T04:27:19.729Z,101027.34
2017-10-02T04:29:48.067Z,101026.92
2017-10-02T04:32:17.146Z,101023.87
2017-10-02T04:34:45.443Z,101015.38
2017-10-02T04:37:14.509Z,101022.53
2017-10-02T04:39:42.829Z,101016.49
2017-10-02T04:42:11.942Z,101012.16
2017-10-02T04:44:40.266Z,101015.14
2017-10-02T04:47:08.589Z,101007.34
2017-10-02T04:49:37.705Z,101001.95
2017-10-02T04:52:06.189Z,100999.25
2017-10-02T04:54:34.518Z,101019.06
2017-10-02T04:57:02.839Z,101030.15
2017-10-02T04:59:31.903Z,101035.02
2017-10-02T05:02:00.211Z,101031.38
2017-10-02T05:04:29.269Z,101045.56
2017-10-02T05:06:57.624Z,101055.53
2017-10-02T05:09:25.936Z,101044.75
2017-10-02T05:11:54.284Z,101037.89
2017-10-02T05:14:23.336Z,101036.02
2017-10-02T05:16:52.419Z,101040.17
2017-10-02T05:19:20.731Z,101027.39
2017-10-02T05:21:49.800Z,101023.34
2017-10-02T05:24:18.241Z,101028.50
2017-10-02T05:26:46.546Z,101019.19
2017-10-02T05:29:14.946Z,101006.64
2017-10-02T05:31:43.242Z,101030.38
2017-10-02T05:34:11.585Z,101034.31
2017-10-02T05:36:39.901Z,101027.33
2017-10-02T05:39:08.217Z,101039.47
2017-10-02T05:41:36.529Z,101038.13
2017-10-02T05:44:04.843Z,101030.80
2017-10-02T05:46:34.242Z,101031.27
2017-10-02T05:49:02.535Z,101026.92
2017-10-02T05:51:30.853Z,101039.82
2017-10-02T05:53:59.247Z,101051.60
2017-10-02T05:56:27.557Z,101059.66
2017-10-02T05:58:55.869Z,101052.98
2017-10-02T06:01:24.185Z,101065.75
2017-10-02T06:03:52.555Z,101047.64
2017-10-02T06:06:20.854Z,101063.59
2017-10-02T06:08:49.213Z,101063.94
2017-10-02T06:11:18.332Z,101063.00
2017-10-02T06:13:47.540Z,101059.89
2017-10-02T06:16:15.947Z,101058.36
2017-10-02T06:18:44.279Z,101053.50
2017-10-02T06:21:13.376Z,101057.13
2017-10-02T06:23:42.488Z,101057.42
2017-10-02T06:26:10.795Z,101053.50
2017-10-02T06:28:45.250Z,101060.65
2017-10-02T06:31:14.781Z,101059.19
2017-10-02T06:33:43.844Z,101064.46
2017-10-02T06:36:13.131Z,101060.59
2017-10-02T06:38:42.249Z,101065.87
2017-10-02T06:41:10.547Z,101066.16
2017-10-02T06:43:38.879Z,101068.45
2017-10-02T06:46:07.176Z,101065.94
2017-10-02T06:48:35.513Z,101058.66
2017-10-02T06:51:04.942Z,101063.83
2017-10-02T06:53:33.465Z,101071.68
2017-10-02T06:56:02.580Z,101069.12
2017-10-02T06:58:30.910Z,101072.94
2017-10-02T07:01:00.564Z,101078.80
2017-10-02T07:03:29.673Z,101094.45
2017-10-02T07:05:57.983Z,101087.30
2017-10-02T07:08:26.353Z,101084.61
2017-10-02T07:10:55.434Z,101090.23
2017-10-02T07:13:23.738Z,101093.58
2017-10-02T07:15:52.093Z,101082.61
2017-10-02T07:18:20.419Z,101089.62
2017-10-02T07:20:49.316Z,101080.03
2017-10-02T07:23:18.548Z,101090.29
2017-10-02T07:25:46.888Z,101089.06
2017-10-02T07:28:17.588Z,101093.25
2017-10-02T07:30:45.908Z,101094.59
2017-10-02T07:33:16.624Z,101103.66
2017-10-02T07:35:46.110Z,101102.66
2017-10-02T07:38:15.913Z,101100.62
2017-10-02T07:40:49.792Z,101097.84
2017-10-02T07:43:19.078Z,101110.73
2017-10-02T07:45:47.416Z,101124.73
2017-10-02T07:48:15.727Z,101125.34
2017-10-02T07:50:45.284Z,101123.41
2017-10-02T07:53:14.252Z,101126.99
2017-10-02T07:55:43.159Z,101121.48
2017-10-02T07:58:12.960Z,101121.03
2017-10-02T08:00:41.353Z,101128.25
2017-10-02T08:03:09.801Z,101132.47
2017-10-02T08:05:38.884Z,101121.03
2017-10-02T08:08:08.446Z,101134.30
2017-10-02T08:10:37.173Z,101129.27
2017-10-02T08:13:06.050Z,101141.65
2017-10-02T08:15:35.313Z,101128.73
2017-10-02T08:18:04.813Z,101129.97
2017-10-02T08:20:34.411Z,101133.40
2017-10-02T08:23:02.789Z,101122.89
2017-10-02T08:25:31.102Z,101131.05
2017-10-02T08:27:59.520Z,101122.95
2017-10-02T08:30:28.333Z,101134.80
2017-10-02T08:32:57.465Z,101125.19
2017-10-02T08:35:27.632Z,101132.98
2017-10-02T08:38:01.694Z,101127.13
2017-10-02T08:40:32.332Z,101131.22
2017-10-02T08:43:01.019Z,101127.70
2017-10-02T08:45:30.886Z,101133.27
2017-10-02T08:48:01.810Z,101138.53
2017-10-02T08:50:31.659Z,101136.62
2017-10-02T08:53:01.195Z,101141.98
2017-10-02T08:55:29.634Z,101135.91
2017-10-02T08:58:00.321Z,101137.12
2017-10-02T09:00:29.630Z,101122.83
2017-10-02T09:03:04.588Z,101134.84
2017-10-02T09:05:32.882Z,101136.30
2017-10-02T09:08:01.190Z,101152.51
2017-10-02T09:10:29.523Z,101151.66
2017-10-02T09:12:57.842Z,101155.51
2017-10-02T09:15:27.184Z,101160.11
2017-10-02T09:17:56.256Z,101168.44
2017-10-02T09:20:25.546Z,101156.92
2017-10-02T09:22:53.903Z,101157.53
2017-10-02T09:25:23.430Z,101160.69
2017-10-02T09:27:52.836Z,101158.73
2017-10-02T09:30:21.124Z,101148.11
2017-10-02T09:32:49.514Z,101161.20
2017-10-02T09:35:22.002Z,101164.55
2017-10-02T09:37:50.389Z,101175.22
2017-10-02T09:40:18.738Z,101174.31
2017-10-02T09:42:47.025Z,101173.73
2017-10-02T09:45:15.358Z,101188.92
2017-10-02T09:47:44.418Z,101188.52
2017-10-02T09:50:12.725Z,101189.56
2017-10-02T09:52:41.851Z,101187.18
2017-10-02T09:55:10.151Z,101185.30
2017-10-02T09:57:38.442Z,101174.89
2017-10-02T10:00:06.735Z,101176.86
2017-10-02T10:02:35.084Z,101185.11
2017-10-02T10:05:03.400Z,101188.75
2017-10-02T10:07:31.719Z,101196.48
2017-10-02T10:10:00.791Z,101182.61
2017-10-02T10:12:29.091Z,101190.19
2017-10-02T10:14:58.184Z,101188.61
2017-10-02T10:17:26.491Z,101191.81
2017-10-02T10:19:55.580Z,101184.73
2017-10-02T10:22:23.972Z,101207.01
2017-10-02T10:24:53.044Z,101193.86
2017-10-02T10:27:21.398Z,101197.02
2017-10-02T10:29:49.725Z,101188.50
2017-10-02T10:32:18.837Z,101198.60
2017-10-02T10:34:47.770Z,101218.36
2017-10-02T10:37:16.093Z,101210.86
2017-10-02T10:39:44.407Z,101205.97
2017-10-02T10:42:12.720Z,101214.98
2017-10-02T10:44:41.105Z,101225.03
2017-10-02T10:47:09.405Z,101228.55
2017-10-02T10:49:37.727Z,101215.42
2017-10-02T10:52:06.030Z,101202.55
2017-10-02T10:54:34.323Z,101197.23
2017-10-02T10:57:02.627Z,101209.31
2017-10-02T10:59:30.957Z,101216.37
2017-10-02T11:01:59.354Z,101219.16
2017-10-02T11:04:27.691Z,101208.09
2017-10-02T11:06:56.028Z,101216.05
2017-10-02T11:09:24.355Z,101231.09
2017-10-02T11:11:53.465Z,101225.39
2017-10-02T11:14:22.551Z,101235.94
2017-10-02T11:16:50.845Z,101228.74
2017-10-02T11:19:19.999Z,101232.68
2017-10-02T11:21:48.299Z,101222.07
2017-10-02T11:24:16.618Z,101238.80
2017-10-02T11:26:44.932Z,101234.15
2017-10-02T11:29:13.241Z,101230.79
2017-10-02T11:31:41.557Z,101246.45
2017-10-02T11:34:09.877Z,101232.91
2017-10-02T11:36:38.185Z,101228.31
2017-10-02T11:39:06.543Z,101228.84
2017-10-02T11:41:34.887Z,101238.05
2017-10-02T11:44:03.374Z,101252.44
2017-10-02T11:46:31.687Z,101238.09
2017-10-02T11:49:00.080Z,101241.61
2017-10-02T11:51:28.383Z,101255.94
2017-10-02T11:53:56.684Z,101245.70
2017-10-02T11:56:25.763Z,101250.28
2017-10-02T11:58:54.108Z,101248.59
2017-10-02T12:01:22.422Z,101246.61
2017-10-02T12:03:50.780Z,101239.27
2017-10-02T12:06:19.090Z,101256.23
2017-10-02T12:08:48.174Z,101259.25
2017-10-02T12:11:16.467Z,101239.91
2017-10-02T12:13:44.772Z,101248.55
2017-10-02T12:16:13.888Z,101239.91
2017-10-02T12:18:42.182Z,101242.77
2017-10-02T12:21:10.483Z,101237.73
2017-10-02T12:23:38.796Z,101233.42
2017-10-02T12:26:07.859Z,101236.33
2017-10-02T12:28:36.156Z,101238.45
2017-10-02T12:31:04.492Z,101223.65
2017-10-02T12:33:32.918Z,101219.20
2017-10-02T12:36:01.221Z,101211.03
2017-10-02T12:38:29.526Z,101205.03
2017-10-02T12:40:57.828Z,101197.13
2017-10-02T12:43:26.139Z,101194.88
2017-10-02T12:45:54.505Z,101195.95
2017-10-02T12:48:22.823Z,101193.75
2017-10-02T12:50:51.115Z,101185.03
2017-10-02T12:53:19.410Z,101213.48
2017-10-02T12:55:48.479Z,101213.66
2017-10-02T12:58:16.778Z,101222.09
2017-10-02T13:00:45.126Z,101230.37
2017-10-02T13:03:13.425Z,101218.36
2017-10-02T13:05:41.713Z,101241.78
2017-10-02T13:08:10.047Z,101246.73
2017-10-02T13:10:38.349Z,101233.25
2017-10-02T13:13:06.728Z,101213.81
2017-10-02T13:15:35.028Z,101210.29
2017-10-02T13:18:03.333Z,101212.09
2017-10-02T13:20:32.408Z,101213.86
2017-10-02T13:23:00.711Z,101203.23
2017-10-02T13:25:29.769Z,101212.13
2017-10-02T13:27:58.097Z,101210.98
2017-10-02T13:30:27.158Z,101208.14
2017-10-02T13:32:55.469Z,101215.56
2017-10-02T13:35:24.582Z,101224.21
2017-10-02T13:37:52.907Z,101208.80
2017-10-02T13:40:21.219Z,101209.41
2017-10-02T13:42:50.377Z,101202.52
2017-10-02T13:45:18.681Z,101209.28
2017-10-02T13:47:46.997Z,101239.83
2017-10-02T13:50:16.071Z,101232.68
2017-10-02T13:52:44.440Z,101250.08
2017-10-02T13:55:12.753Z,101265.56
2017-10-02T13:57:41.805Z,101273.20
2017-10-02T14:00:10.104Z,101280.80
2017-10-02T14:02:38.418Z,101276.45
2017-10-02T14:05:07.513Z,101268.81
2017-10-02T14:07:36.574Z,101256.02
2017-10-02T14:10:04.889Z,101263.30
2017-10-02T14:12:33.191Z,101253.82
2017-10-02T14:15:01.525Z,101257.53
2017-10-02T14:17:29.827Z,101250.48
2017-10-02T14:19:58.905Z,101263.89
2017-10-02T14:22:27.216Z,101257.23
2017-10-02T14:24:56.299Z,101250.30
2017-10-02T14:27:26.113Z,101238.27
2017-10-02T14:29:54.401Z,101243.79
2017-10-02T14:32:22.755Z,101239.86
2017-10-02T14:34:51.072Z,101259.17
2017-10-02T14:37:20.133Z,101264.81
2017-10-02T14:39:48.451Z,101264.82
2017-10-02T14:42:17.529Z,101249.84
2017-10-02T14:44:45.823Z,101263.42
2017-10-02T14:47:14.101Z,101260.66
2017-10-02T14:49:42.403Z,101259.58
2017-10-02T14:52:11.547Z,101258.08
2017-10-02T14:54:39.864Z,101278.80
2017-10-02T14:57:08.956Z,101275.52
2017-10-02T14:59:37.280Z,101275.19
2017-10-02T15:02:05.639Z,101265.21
2017-10-02T15:04:34.712Z,101253.09
2017-10-02T15:07:03.035Z,101264.77
2017-10-02T15:09:31.332Z,101273.64
2017-10-02T15:11:59.659Z,101277.03
2017-10-02T15:14:27.992Z,101298.52
2017-10-02T15:16:56.300Z,101294.82
2017-10-02T15:19:24.624Z,101282.76
2017-10-02T15:21:53.708Z,101286.86
2017-10-02T15:24:22.047Z,101275.88
2017-10-02T15:26:50.350Z,101260.33
2017-10-02T15:29:18.680Z,101244.60
2017-10-02T15:31:48.192Z,101250.09
2017-10-02T15:34:17.001Z,101267.22
2017-10-02T15:36:45.377Z,101265.58
2017-10-02T15:39:14.336Z,101253.43
2017-10-02T15:41:42.692Z,101274.20
2017-10-02T15:44:10.987Z,101277.66
2017-10-02T15:46:39.468Z,101273.84
2017-10-02T15:49:07.830Z,101275.89
2017-10-02T15:51:36.137Z,101271.28
2017-10-02T15:54:07.798Z,101277.47
2017-10-02T15:56:39.248Z,101274.51
2017-10-02T15:59:08.964Z,101272.98
2017-10-02T16:01:39.439Z,101263.42
2017-10-02T16:04:12.142Z,101262.48
2017-10-02T16:06:40.459Z,101263.65
2017-10-02T16:09:08.819Z,101263.17
2017-10-02T16:11:37.268Z,101261.00
2017-10-02T16:14:05.593Z,101261.64
2017-10-02T16:16:35.364Z,101263.52
2017-10-02T16:19:03.709Z,101277.66
2017-10-02T16:21:32.782Z,101273.31
2017-10-02T16:24:01.078Z,101260.34
2017-10-02T16:26:29.398Z,101259.11
2017-10-02T16:28:57.706Z,101263.42
2017-10-02T16:31:26.032Z,101263.95
2017-10-02T16:33:55.138Z,101272.16
2017-10-02T16:36:24.190Z,101264.83
2017-10-02T16:38:52.493Z,101275.31
2017-10-02T16:41:20.814Z,101265.05
2017-10-02T16:43:49.110Z,101274.84
2017-10-02T16:46:17.550Z,101278.82
2017-10-02T16:48:45.876Z,101270.96
2017-10-02T16:51:14.232Z,101260.02
2017-10-02T16:53:43.320Z,101269.28
2017-10-02T16:56:11.634Z,101287.95
2017-10-02T16:58:39.938Z,101289.94
2017-10-02T17:01:08.254Z,101286.77
2017-10-02T17:03:36.538Z,101277.02
2017-10-02T17:06:04.858Z,101265.08
2017-10-02T17:08:33.164Z,101264.37
2017-10-02T17:11:01.490Z,101277.37
2017-10-02T17:13:30.579Z,101284.77
2017-10-02T17:15:59.644Z,101284.34
2017-10-02T17:18:27.993Z,101299.52
2017-10-02T17:20:56.292Z,101296.12
2017-10-02T17:23:24.666Z,101286.57
2017-10-02T17:25:52.979Z,101283.39
2017-10-02T17:28:21.274Z,101279.44
2017-10-02T17:30:49.566Z,101268.47
2017-10-02T17:33:17.886Z,101257.23
2017-10-02T17:35:46.179Z,101270.30
2017-10-02T17:38:14.482Z,101263.49
2017-10-02T17:40:42.822Z,101270.23
2017-10-02T17:43:11.120Z,101269.59
2017-10-02T17:45:39.436Z,101270.41
2017-10-02T17:48:07.820Z,101277.56
2017-10-02T17:50:36.126Z,101279.03
2017-10-02T17:53:05.215Z,101279.33
2017-10-02T17:55:33.529Z,101267.61
2017-10-02T17:58:01.835Z,101270.72
2017-10-02T18:00:30.165Z,101288.02
2017-10-02T18:02:59.320Z,101288.42
2017-10-02T18:05:27.632Z,101271.23
2017-10-02T18:07:55.928Z,101281.80
2017-10-02T18:10:25.027Z,101275.28
2017-10-02T18:12:54.116Z,101267.49
2017-10-02T18:15:22.418Z,101275.73
2017-10-02T18:17:51.478Z,101283.03
2017-10-02T18:20:21.415Z,101280.75
2017-10-02T18:22:50.584Z,101260.75
2017-10-02T18:25:18.892Z,101260.64
2017-10-02T18:27:47.260Z,101260.45
2017-10-02T18:30:15.568Z,101272.59
2017-10-02T18:32:44.654Z,101267.72
2017-10-02T18:35:12.982Z,101272.81
2017-10-02T18:37:41.291Z,101290.75
2017-10-02T18:40:09.600Z,101294.56
2017-10-02T18:42:37.911Z,101287.53
2017-10-02T18:45:06.222Z,101272.81
2017-10-02T18:47:34.575Z,101265.55
2017-10-02T18:50:02.906Z,101243.28
2017-10-02T18:52:31.201Z,101241.11
2017-10-02T18:54:59.537Z,101208.64
2017-10-02T18:57:29.625Z,101212.98
2017-10-02T18:59:58.101Z,101229.39
2017-10-02T19:02:27.177Z,101212.27
2017-10-02T19:04:55.559Z,101229.68
2017-10-02T19:07:23.905Z,101217.44
2017-10-02T19:09:52.199Z,101237.25
2017-10-02T19:12:20.500Z,101259.11
2017-10-02T19:14:48.875Z,101253.83
2017-10-02T19:17:17.310Z,101247.80
2017-10-02T19:19:45.679Z,101250.20
2017-10-02T19:22:14.784Z,101264.20
2017-10-02T19:24:43.141Z,101249.90
2017-10-02T19:27:11.498Z,101248.55
2017-10-02T19:29:39.805Z,101247.20
2017-10-02T19:32:08.175Z,101244.09
2017-10-02T19:34:36.513Z,101249.38
2017-10-02T19:37:04.850Z,101255.17
2017-10-02T19:39:33.139Z,101269.30
2017-10-02T19:42:01.444Z,101281.84
2017-10-02T19:44:29.834Z,101271.88
2017-10-02T19:46:58.164Z,101269.70
2017-10-02T19:49:26.507Z,101248.03
2017-10-02T19:51:54.815Z,101255.30
2017-10-02T19:54:23.892Z,101239.12
2017-10-02T19:56:52.304Z,101258.28
2017-10-02T19:59:20.635Z,101267.20
2017-10-02T20:01:49.708Z,101252.48
2017-10-02T20:04:18.046Z,101266.08
2017-10-02T20:06:46.383Z,101266.08
2017-10-02T20:09:15.480Z,101283.59
2017-10-02T20:11:44.564Z,101261.03
2017-10-02T20:14:12.880Z,101262.23
2017-10-02T20:16:41.182Z,101265.94
2017-10-02T20:19:09.490Z,101276.57
2017-10-02T20:21:37.827Z,101267.48
2017-10-02T20:24:06.319Z,101279.98
2017-10-02T20:26:34.639Z,101277.17
2017-10-02T20:29:02.977Z,101257.94
2017-10-02T20:31:31.287Z,101273.39
2017-10-02T20:33:59.602Z,101282.52
2017-10-02T20:36:27.919Z,101288.20
2017-10-02T20:38:56.224Z,101285.81
2017-10-02T20:41:24.568Z,101266.84
2017-10-02T20:43:53.646Z,101290.98
2017-10-02T20:46:21.958Z,101291.27
2017-10-02T20:48:50.261Z,101289.15
2017-10-02T20:51:18.567Z,101280.95
2017-10-02T20:53:46.897Z,101292.03
2017-10-02T20:56:15.188Z,101281.55
2017-10-02T20:58:43.572Z,101269.84
2017-10-02T21:01:11.873Z,101270.17
2017-10-02T21:03:40.311Z,101259.66
2017-10-02T21:06:09.391Z,101260.11
2017-10-02T21:08:37.680Z,101261.45
2017-10-02T21:11:05.973Z,101267.36
2017-10-02T21:13:35.088Z,101245.52
2017-10-02T21:16:03.477Z,101248.02
2017-10-02T21:18:31.782Z,101255.91
2017-10-02T21:21:00.079Z,101265.05
2017-10-02T21:23:28.376Z,101262.98
2017-10-02T21:25:56.672Z,101262.16
2017-10-02T21:28:25.729Z,101276.80
2017-10-02T21:30:54.043Z,101287.30
2017-10-02T21:33:22.349Z,101282.66
2017-10-02T21:35:51.421Z,101282.99
2017-10-02T21:38:19.702Z,101286.21
2017-10-02T21:40:48.826Z,101294.92
2017-10-02T21:43:17.946Z,101295.56
2017-10-02T21:45:46.349Z,101291.33
2017-10-02T21:48:14.643Z,101288.04
2017-10-02T21:50:42.977Z,101290.32
2017-10-02T21:53:11.280Z,101299.97
2017-10-02T21:55:39.649Z,101296.97
2017-10-02T21:58:07.980Z,101288.38
2017-10-02T22:00:36.273Z,101287.66
2017-10-02T22:03:04.639Z,101289.00
2017-10-02T22:05:32.958Z,101286.95
2017-10-02T22:08:01.341Z,101271.42
2017-10-02T22:10:29.637Z,101274.72
2017-10-02T22:12:57.960Z,101273.78
2017-10-02T22:15:26.266Z,101275.13
2017-10-02T22:17:54.603Z,101282.27
2017-10-02T22:20:22.993Z,101285.91
2017-10-02T22:22:51.301Z,101279.28
2017-10-02T22:25:19.623Z,101274.12
2017-10-02T22:27:47.911Z,101285.63
2017-10-02T22:30:16.220Z,101279.64
2017-10-02T22:32:44.522Z,101279.87
2017-10-02T22:35:12.814Z,101295.84
2017-10-02T22:37:41.875Z,101291.94
2017-10-02T22:40:10.267Z,101303.34
2017-10-02T22:42:38.640Z,101290.21
2017-10-02T22:45:07.077Z,101280.48
2017-10-02T22:47:36.149Z,101275.02
2017-10-02T22:50:04.457Z,101283.63
2017-10-02T22:52:32.770Z,101280.03
2017-10-02T22:55:01.077Z,101275.98
2017-10-02T22:57:32.595Z,101285.63
2017-10-02T23:00:00.902Z,101304.42
2017-10-02T23:02:29.198Z,101316.77
2017-10-02T23:04:57.536Z,101311.30
2017-10-02T23:07:25.839Z,101311.73
2017-10-02T23:09:56.775Z,101323.66
2017-10-02T23:12:25.078Z,101317.80
2017-10-02T23:14:53.380Z,101318.44
2017-10-02T23:17:21.677Z,101313.16
2017-10-02T23:19:50.759Z,101318.16
2017-10-02T23:22:19.896Z,101313.11
2017-10-02T23:24:48.184Z,101311.35
2017-10-02T23:27:16.485Z,101311.77
2017-10-02T23:29:44.810Z,101313.33
2017-10-02T23:32:14.046Z,101305.25
2017-10-02T23:34:42.346Z,101302.16
2017-10-02T23:37:10.652Z,101301.33
2017-10-02T23:39:38.949Z,101302.67
2017-10-02T23:42:07.473Z,101306.30
2017-10-02T23:44:35.789Z,101302.16
2017-10-02T23:47:04.100Z,101305.14
2017-10-02T23:49:33.187Z,101312.17
2017-10-02T23:52:01.486Z,101299.44
2017-10-02T23:54:30.590Z,101302.84
2017-10-02T23:56:59.651Z,101303.44
2017-10-02T23:59:27.950Z,101311.93
